Airfield :







YOU CAN JOIN US ON...

 
LOGIN :

Register | Disclaimer

   EN    FR    IT 

 









Legend :    VFR   Marginal VFR   IFR   Intensive IFR   Very Intensive IFR
Visi :
Ceiling :
>= 8 km
>= 3000ft
5 to 8 km
1000 to 3000 ft
1500m to 5 km
500 to 1000 ft
800 to 1500m
200 to 500 ft
< 800m
< 200 ft
Symbols :   Thunderstorms  Fog  Heavy snow  Heavy precipitations  Wind > 20 kt






- Airport Elevation : 40 ft
- IATA code : YRF


CYCA - Cartwright

CURRENT METAR :
  • 130800Z AUTO 24019G32KT 9SM CLR M19/M24 A3002 RMK SLP169

EXPIRED METARs :
  • 130700Z AUTO 23020G33KT 9SM FEW110 M19/M24 A3001 RMK SLP167
  • 130600Z AUTO 23017G35KT 9SM SCT110 M19/M24 A3000 RMK SLP163

TAF TAF CYCA
Valid from the 13 at 08:00 until the 13 at 20:00 UTC


130738Z 1308/1320 23020G30KT P6SM SKC
BECMG 1311/1313 26020G30KT RMK FCST BASED ON AUTO OBS. NXT FCST BY 131400Z



MET'MAP, your aeronautical weather chart ! - Copyright ORBIFLY December 2007 - Disclaimer

ORBIFLY MET'MAP TEAM :

Programming & Development : Alexandra Zaïnal
Concept & original design : Baudouin d'Aumeries
Assistance for programming : Marc-Olivier Méhu
Technical & hardware support : Manuel Goepfert

Contact : metmap@orbifly.com




SOURCES & CREDITS :

   NOAA